Shipshewana, IN

4:57 PM EST on February 28, 2015 (GMT -0500)
Elkhart Municipal | Change Station
CLOSE
Current Station
Airport
Location: Elkhart,
Elevation: 778 ft
Nearby Weather Stations
Active Advisory: Special Statement Active Notice: Record Report

Elev 778 ft 41.72 °N, 86.00 °W | Updated 1 hour ago

Clear
Clear
21 °F
Feels Like 21 °F
N
0
Wind Variable Wind from North

Today
High -- | Low -- °F
--% Chance of Precip.
Yesterday
High -- | Low -- °F
Precip. -- in
7:19 AM 6:31 PM
Waxing Gibbous, 80% visible
Pressure 30.61 in
Visibility 10.0 miles
Clouds Clear
Dew Point -2 °F
Humidity 36%
Rainfall 0.00 in
Snow Depth Not available.
UV 2 out of 12
Pollen .30 out of 12
Air Quality Not available.
Flu Activity Not available.
METAR KEKM 282055Z 00000KT 10SM CLR M06/M19 A3061 RMK AO2

More Conditions Fewer Conditions

Pressure 30.61 in
Visibility 10.0 miles
Clouds Clear
Dew Point -2 °F
Humidity 36%
Rainfall 0.00 in
Snow Depth Not available.
UV 2 out of 12
Pollen .30 out of 12
Air Quality Not available.
Flu Activity Not available.
METAR KEKM 282055Z 00000KT 10SM CLR M06/M19 A3061 RMK AO2

More Conditions Fewer Conditions

10-Day Weather Forecast

Almanac

Astronomy

Feb. 28, 2015 Rise Set
Actual Time
Civil Twilight
Nautical Twilight
Astronomical Twilight
Moon
Length of Visible Light
Length of Day
Tomorrow will be .
, % of the Moon is Illuminated

Today's Extremes

State Highs State Lows

Community

WunderPhotos

Upload Photos

1,801,160 photos uploaded!

WunderBlogs® & News

Nearby

Air Quality

  Air Quality AQ Index Pollutant
Not available.

Snow Depth

Station Depth Elevation

Earthquake Activity

City Distance Mag. Time & Date
Minimum magnitude displayed is 2.5.

Coastal Water Temperatures

Place Temperature

Nearby Weather Stations

Special Statement
Statement as of 2:28 PM CST on February 28, 2015

... Accumulating snow expected in the area tonight and Sunday...

Snow is expected to overspread the area from west to east this
evening... and then continue at times late tonight and Sunday. By
Sunday evening... new snow accumulations are expected to range
from an inch or less over southwest Michigan... to 3 to 4 inches
along the Route 24 corridor... including Monticello... Fort
Wayne... and Defiance. Areas farther southeast including Marion...
Portland... Van Wert... and Lima are expected to receive heavier
accumulations of 4 to 6 inches. The snow will likely cause slick
roads across the area overnight and into Sunday... especially
across northern Indiana and Northwest Ohio.